Terminal Aerodrome Forecast
Issued by NWS Missoula, MT

Home | Current Version | Previous Version | Text Only | Print | Product List | Glossary On
Versions: 1 2 3 4 5 6 7 8 9 10 11 12
000
FTUS45 KMSO 161720
TAFBTM
TAF
KBTM 161720Z 1618/1718 VRB03KT P6SM FEW250
     FM162100 29009G16KT P6SM SCT100
     FM170300 16006KT P6SM SKC=

USA.gov is the U.S. government's official web portal to all federal, state and local government web resources and services.